Time;durP1;ratioP1;P1;durP2;ratioP2;P2;SDS_P1;SDS_P2;PMS_P1;PMS_P2;Temp;Humidity;BMP_temperature;BMP_pressure;BME280_temperature;BME280_humidity;BME280_pressure;Samples;Min_cycle;Max_cycle;Signal;HPM_P1;HPM_P2
2021/12/17 00:00:18;;;;;;;36.03;15.67;;;;;;;0.80;100.00;97891.47;5070165;28;20132;-65
2021/12/17 00:05:44;;;;;;;34.60;15.90;;;;;;;0.83;100.00;97902.63;5070138;28;20036;-65
2021/12/17 00:08:14;;;;;;;30.33;15.17;;;;;;;0.83;100.00;97885.31;5070823;28;20047;-65
2021/12/17 00:10:43;;;;;;;35.77;16.27;;;;;;;0.85;100.00;97896.50;5070784;28;20067;-65
2021/12/17 00:13:10;;;;;;;32.80;16.23;;;;;;;0.83;100.00;97893.97;5070348;28;20094;-66
2021/12/17 00:15:39;;;;;;;31.57;15.77;;;;;;;0.82;100.00;97896.59;5070217;28;20044;-65
2021/12/17 00:18:13;;;;;;;32.43;14.90;;;;;;;0.83;100.00;97895.69;5070117;28;20044;-65
2021/12/17 00:40:16;;;;;;;30.80;15.37;;;;;;;0.86;100.00;97887.00;5070714;28;20412;-66
2021/12/17 00:48:23;;;;;;;28.03;15.30;;;;;;;0.73;100.00;97879.56;5068541;28;20072;-69
2021/12/17 00:49:25;;;;;;;32.33;14.23;;;;;;;0.74;100.00;97875.25;5070101;28;20033;-73
2021/12/17 00:52:00;;;;;;;27.67;14.57;;;;;;;0.72;100.00;97877.88;5065989;28;20072;-65
2021/12/17 00:54:34;;;;;;;29.40;13.27;;;;;;;0.72;100.00;97872.69;5069027;28;20546;-65
2021/12/17 00:57:07;;;;;;;27.00;14.00;;;;;;;0.70;100.00;97871.06;5068577;28;20055;-66
2021/12/17 00:59:36;;;;;;;27.45;14.05;;;;;;;0.70;100.00;97871.91;5068685;28;20036;-65
2021/12/17 01:02:06;;;;;;;32.13;14.77;;;;;;;0.69;100.00;97871.97;5069552;28;20076;-65
2021/12/17 01:04:34;;;;;;;26.57;13.70;;;;;;;0.68;100.00;97860.72;5068085;28;20044;-64
2021/12/17 01:07:01;;;;;;;29.80;13.73;;;;;;;0.70;100.00;97871.06;5069446;28;20609;-65
2021/12/17 01:09:28;;;;;;;28.67;13.77;;;;;;;0.69;100.00;97865.00;5068073;28;20040;-65
2021/12/17 01:11:57;;;;;;;27.33;13.90;;;;;;;0.68;100.00;97865.91;5067842;28;20043;-65
2021/12/17 01:14:45;;;;;;;28.13;13.53;;;;;;;0.71;100.00;97858.06;5072241;28;20036;-64
2021/12/17 01:17:29;;;;;;;26.57;12.67;;;;;;;0.71;100.00;97852.88;5071209;28;20044;-64
2021/12/17 01:23:13;;;;;;;27.80;13.97;;;;;;;0.72;100.00;97853.69;5071417;28;20028;-65
2021/12/17 01:35:28;;;;;;;26.60;13.35;;;;;;;0.70;100.00;97835.66;5070166;28;20097;-64
2021/12/17 01:41:30;;;;;;;24.60;12.80;;;;;;;0.69;100.00;97838.28;5072305;28;20047;-64
2021/12/17 01:43:57;;;;;;;22.00;11.70;;;;;;;0.66;100.00;97849.56;5073500;28;20082;-64
2021/12/17 01:46:29;;;;;;;30.13;12.07;;;;;;;0.67;100.00;97845.22;5072636;28;20079;-64
2021/12/17 01:49:15;;;;;;;25.17;11.60;;;;;;;0.66;100.00;97849.56;5072107;28;20133;-64
2021/12/17 02:00:10;;;;;;;27.13;10.63;;;;;;;0.58;100.00;97836.00;5070829;28;20044;-63
2021/12/17 02:02:46;;;;;;;22.77;10.80;;;;;;;0.58;100.00;97841.16;5071868;28;20044;-63
2021/12/17 02:05:17;;;;;;;26.13;9.88;;;;;;;0.57;100.00;97826.53;5070895;28;20505;-65
2021/12/17 02:07:48;;;;;;;21.93;10.10;;;;;;;0.53;100.00;97819.75;5072080;28;20036;-65
2021/12/17 02:10:50;;;;;;;24.27;9.07;;;;;;;0.53;100.00;97824.94;5070987;28;20076;-64
2021/12/17 02:21:56;;;;;;;21.83;8.60;;;;;;;0.52;100.00;97843.97;5069676;28;20059;-64
2021/12/17 02:32:38;;;;;;;16.40;8.33;;;;;;;0.59;100.00;97849.81;5069654;28;20520;-63
2021/12/17 02:35:22;;;;;;;15.67;7.20;;;;;;;0.58;100.00;97841.16;5070265;28;20131;-64
2021/12/17 02:37:52;;;;;;;21.07;7.73;;;;;;;0.60;100.00;97838.53;5069184;28;20067;-64
2021/12/17 02:46:49;;;;;;;16.40;7.40;;;;;;;0.60;100.00;97820.41;5070076;28;20550;-64
2021/12/17 02:49:16;;;;;;;27.00;8.83;;;;;;;0.61;100.00;97835.91;5070184;28;20048;-64
2021/12/17 02:51:44;;;;;;;18.87;7.30;;;;;;;0.60;100.00;97828.19;5070463;28;20545;-64
2021/12/17 02:54:12;;;;;;;21.63;7.57;;;;;;;0.58;100.00;97830.81;5071436;28;20037;-64
2021/12/17 02:56:40;;;;;;;20.37;7.20;;;;;;;0.61;100.00;97815.19;5070545;28;20497;-64
2021/12/17 02:59:10;;;;;;;21.67;8.33;;;;;;;0.61;100.00;97822.09;5069694;28;20044;-64
2021/12/17 03:01:37;;;;;;;19.90;8.10;;;;;;;0.60;100.00;97813.50;5071401;28;20040;-63
2021/12/17 03:04:05;;;;;;;20.53;8.37;;;;;;;0.60;100.00;97807.44;5072332;28;20094;-64
2021/12/17 03:06:32;;;;;;;18.60;7.47;;;;;;;0.57;100.00;97802.34;5070846;28;20066;-64
2021/12/17 03:08:59;;;;;;;14.53;7.47;;;;;;;0.54;100.00;97813.66;5071246;28;20068;-64
2021/12/17 03:11:27;;;;;;;18.40;9.37;;;;;;;0.57;100.00;97807.53;5072564;28;20523;-65
2021/12/17 03:13:54;;;;;;;28.43;9.30;;;;;;;0.53;100.00;97806.78;5070247;28;20041;-65
2021/12/17 03:16:33;;;;;;;19.93;8.20;;;;;;;0.55;100.00;97822.28;5071813;28;20444;-64
2021/12/17 03:19:13;;;;;;;25.70;9.87;;;;;;;0.56;100.00;97819.66;5069138;28;20493;-65
2021/12/17 03:24:30;;;;;;;29.27;11.20;;;;;;;0.57;100.00;97813.56;4997469;28;20046;-64
2021/12/17 03:26:59;;;;;;;16.67;7.90;;;;;;;0.59;100.00;97806.63;5071431;28;20464;-64
2021/12/17 03:29:26;;;;;;;19.20;7.80;;;;;;;0.54;100.00;97811.06;5071498;28;20040;-64
2021/12/17 03:32:00;;;;;;;16.77;8.13;;;;;;;0.54;100.00;97808.47;5072266;28;20036;-63
2021/12/17 03:34:27;;;;;;;20.70;7.17;;;;;;;0.52;100.00;97812.03;5070498;28;20040;-64
2021/12/17 03:36:57;;;;;;;20.20;7.00;;;;;;;0.53;100.00;97796.44;5069351;28;20107;-64
2021/12/17 03:39:30;;;;;;;12.17;6.20;;;;;;;0.52;100.00;97799.06;5070434;28;20044;-65
2021/12/17 03:42:09;;;;;;;11.97;5.97;;;;;;;0.51;100.00;97795.63;5071648;28;20861;-64
2021/12/17 03:44:39;;;;;;;16.77;7.33;;;;;;;0.51;100.00;97805.97;5071116;28;20512;-64
2021/12/17 03:47:32;;;;;;;12.27;6.47;;;;;;;0.52;100.00;97794.75;5067242;28;20409;-64
2021/12/17 03:50:15;;;;;;;20.93;7.30;;;;;;;0.54;100.00;97798.13;5070083;28;20527;-64
2021/12/17 03:52:43;;;;;;;20.53;5.83;;;;;;;0.53;100.00;97799.03;5073277;28;20094;-64
2021/12/17 03:55:12;;;;;;;19.97;7.47;;;;;;;0.53;100.00;97798.16;5069947;28;20040;-64
2021/12/17 03:57:45;;;;;;;18.87;6.63;;;;;;;0.53;100.00;97804.22;5070826;28;20043;-64
2021/12/17 04:00:14;;;;;;;16.27;6.17;;;;;;;0.56;100.00;97806.72;5071545;28;20140;-65
2021/12/17 04:02:44;;;;;;;13.20;7.00;;;;;;;0.54;100.00;97807.66;5071788;28;20044;-64
2021/12/17 04:05:18;;;;;;;11.50;6.37;;;;;;;0.54;100.00;97803.31;5069188;28;20469;-64
2021/12/17 04:07:51;;;;;;;17.20;6.95;;;;;;;0.54;100.00;97795.53;5071056;28;20048;-64
2021/12/17 04:10:48;;;;;;;16.23;6.60;;;;;;;0.55;100.00;97788.63;5070868;28;20052;-65
2021/12/17 04:13:30;;;;;;;22.47;7.53;;;;;;;0.55;100.00;97804.16;5069716;28;20048;-64
2021/12/17 04:16:07;;;;;;;16.57;7.03;;;;;;;0.53;100.00;97796.44;5069571;28;20044;-64
2021/12/17 04:18:36;;;;;;;15.83;6.90;;;;;;;0.56;100.00;97800.66;5069384;28;20033;-64
2021/12/17 04:21:09;;;;;;;20.60;7.47;;;;;;;0.58;100.00;97798.91;5069420;28;20090;-63
2021/12/17 04:23:36;;;;;;;16.70;6.33;;;;;;;0.58;100.00;97799.72;5069314;28;20083;-64
2021/12/17 04:26:04;;;;;;;17.17;6.23;;;;;;;0.59;100.00;97808.34;5069603;28;20047;-64
2021/12/17 04:28:32;;;;;;;13.27;6.00;;;;;;;0.58;100.00;97794.53;5053275;28;20040;-64
2021/12/17 04:31:01;;;;;;;18.73;6.73;;;;;;;0.63;100.00;97795.28;5069944;28;20033;-64
2021/12/17 04:33:31;;;;;;;16.53;5.27;;;;;;;0.61;100.00;97791.00;5069677;28;20067;-64
2021/12/17 04:35:59;;;;;;;17.57;5.80;;;;;;;0.55;100.00;97791.22;5069130;28;20501;-64
2021/12/17 04:38:27;;;;;;;13.50;5.70;;;;;;;0.53;100.00;97788.66;5070728;28;20051;-65
2021/12/17 04:40:59;;;;;;;19.50;5.00;;;;;;;0.52;100.00;97786.13;5068290;28;20531;-64
2021/12/17 04:43:37;;;;;;;19.33;5.67;;;;;;;0.54;100.00;97779.16;5069071;28;20381;-64
2021/12/17 04:46:20;;;;;;;13.90;5.33;;;;;;;0.57;100.00;97785.09;5069070;28;20039;-64
2021/12/17 04:57:20;;;;;;;26.40;7.60;;;;;;;0.44;100.00;97775.16;5069010;28;20040;-64
2021/12/17 04:59:50;;;;;;;17.47;6.37;;;;;;;0.47;100.00;97775.06;5069200;28;20074;-64
2021/12/17 05:02:18;;;;;;;18.40;7.37;;;;;;;0.44;100.00;97773.38;5068827;28;20055;-65
2021/12/17 05:04:55;;;;;;;14.63;5.83;;;;;;;0.43;100.00;97763.94;5068639;28;20043;-65
2021/12/17 05:07:25;;;;;;;19.17;6.37;;;;;;;0.42;100.00;97762.25;5069042;28;20040;-64
2021/12/17 05:10:02;;;;;;;20.73;6.40;;;;;;;0.41;100.00;97755.38;5069295;28;20044;-65
2021/12/17 05:20:54;;;;;;;11.53;5.10;;;;;;;0.26;100.00;97779.16;5068766;28;20041;-65
2021/12/17 05:23:26;;;;;;;26.37;6.60;;;;;;;0.23;100.00;97763.69;5068570;28;20489;-65
2021/12/17 05:25:54;;;;;;;18.63;6.38;;;;;;;0.28;100.00;97779.94;5069014;28;20080;-65
2021/12/17 05:28:26;;;;;;;18.13;7.40;;;;;;;0.32;100.00;97778.94;5068612;28;20055;-65
2021/12/17 05:30:55;;;;;;;19.07;7.33;;;;;;;0.25;100.00;97785.19;5068694;28;20191;-64
2021/12/17 05:33:25;;;;;;;19.50;6.43;;;;;;;0.23;100.00;97778.38;5068566;28;20048;-64
2021/12/17 05:35:53;;;;;;;21.57;7.67;;;;;;;0.24;100.00;97782.66;5069527;28;20060;-65
2021/12/17 05:38:23;;;;;;;29.23;7.90;;;;;;;0.24;100.00;97780.06;5068703;28;20094;-64
2021/12/17 05:40:50;;;;;;;21.77;7.73;;;;;;;0.24;100.00;97777.47;5068761;28;21555;-65
2021/12/17 05:43:19;;;;;;;20.93;8.40;;;;;;;0.23;100.00;97770.59;5067513;28;20048;-64
2021/12/17 05:45:52;;;;;;;26.73;7.97;;;;;;;0.20;100.00;97775.88;5068002;28;20045;-64
2021/12/17 05:48:21;;;;;;;16.55;7.53;;;;;;;0.17;100.00;97784.56;5068439;28;20409;-64
2021/12/17 05:50:53;;;;;;;19.10;7.17;;;;;;;0.18;100.00;97780.25;5068267;28;20503;-64
2021/12/17 05:53:20;;;;;;;33.50;9.57;;;;;;;0.18;100.00;97775.06;5068232;28;20111;-64
2021/12/17 05:55:50;;;;;;;13.73;6.53;;;;;;;0.16;100.00;97775.13;5067955;28;20064;-64
2021/12/17 05:58:18;;;;;;;18.17;7.00;;;;;;;0.14;100.00;97779.47;5066541;28;20048;-65
2021/12/17 06:00:46;;;;;;;21.10;7.40;;;;;;;0.16;100.00;97771.66;5069782;28;20056;-65
2021/12/17 06:03:40;;;;;;;20.87;7.23;;;;;;;0.21;100.00;97775.81;5071329;28;20566;-65
2021/12/17 06:06:12;;;;;;;20.43;6.13;;;;;;;0.24;100.00;97770.56;5071728;28;20449;-64
2021/12/17 06:08:41;;;;;;;21.37;6.97;;;;;;;0.24;100.00;97767.97;5071280;28;20493;-64
2021/12/17 06:11:08;;;;;;;25.17;6.93;;;;;;;0.24;100.00;97775.75;5072592;28;20467;-65
2021/12/17 06:13:35;;;;;;;14.63;6.03;;;;;;;0.25;100.00;97774.84;5071111;28;20048;-65
2021/12/17 06:16:02;;;;;;;21.93;7.27;;;;;;;0.24;100.00;97767.97;5071516;28;20066;-65
2021/12/17 06:18:32;;;;;;;18.60;7.73;;;;;;;0.24;100.00;97770.56;5070594;28;20447;-65
2021/12/17 06:20:59;;;;;;;26.30;8.03;;;;;;;0.22;100.00;97772.34;5071312;28;20094;-65
2021/12/17 06:23:28;;;;;;;33.17;9.17;;;;;;;0.22;100.00;97779.28;5071595;28;20041;-65
2021/12/17 06:25:55;;;;;;;25.43;8.40;;;;;;;0.24;100.00;97767.09;5071451;28;20106;-65
2021/12/17 06:28:23;;;;;;;19.53;8.57;;;;;;;0.26;100.00;97771.38;5072300;28;20044;-64
2021/12/17 06:30:54;;;;;;;34.83;10.37;;;;;;;0.26;100.00;97767.94;5054512;28;20051;-65
2021/12/17 06:33:28;;;;;;;22.35;9.15;;;;;;;0.28;100.00;97764.41;5072003;28;20093;-65
2021/12/17 06:35:55;;;;;;;17.40;6.93;;;;;;;0.25;100.00;97769.66;5073159;28;20044;-64
2021/12/17 06:38:24;;;;;;;19.90;7.57;;;;;;;0.34;100.00;97771.13;5071394;28;20128;-65
2021/12/17 06:40:57;;;;;;;20.90;7.37;;;;;;;0.34;100.00;97773.72;5054527;28;20064;-65
2021/12/17 06:43:31;;;;;;;18.43;6.93;;;;;;;0.36;100.00;97770.19;5071528;28;20071;-64
2021/12/17 06:46:12;;;;;;;22.97;7.23;;;;;;;0.39;100.00;97777.00;5071013;28;20094;-64
2021/12/17 06:48:39;;;;;;;23.17;7.20;;;;;;;0.37;100.00;97779.66;5070975;28;20115;-64
2021/12/17 07:00:35;;;;;;;29.13;9.87;;;;;;;0.36;100.00;97759.00;5051140;28;20135;-64
2021/12/17 07:07:02;;;;;;;16.77;7.57;;;;;;;0.35;100.00;97755.56;5030031;28;20100;-64
2021/12/17 07:18:51;;;;;;;25.80;6.90;;;;;;;0.48;100.00;97750.84;5070428;28;20056;-64
2021/12/17 07:21:26;;;;;;;16.23;6.13;;;;;;;0.53;100.00;97760.16;5070170;28;20032;-67
2021/12/17 07:32:48;;;;;;;19.80;6.40;;;;;;;0.57;100.00;97745.38;5069954;28;20109;-65
2021/12/17 07:35:39;;;;;;;19.37;6.30;;;;;;;0.61;100.00;97753.00;5069750;28;20049;-64
2021/12/17 07:40:53;;;;;;;19.03;4.70;;;;;;;0.64;100.00;97744.28;5070629;28;20040;-64
2021/12/17 07:43:28;;;;;;;23.43;5.50;;;;;;;0.62;100.00;97753.88;5070097;28;20516;-65
2021/12/17 07:45:58;;;;;;;19.53;5.90;;;;;;;0.73;100.00;97755.19;5069584;28;20511;-63
2021/12/17 07:48:28;;;;;;;12.63;4.97;;;;;;;0.75;100.00;97748.25;5069802;28;20125;-64
2021/12/17 07:51:05;;;;;;;19.07;6.50;;;;;;;0.73;100.00;97752.63;5069432;28;20440;-64
2021/12/17 07:53:54;;;;;;;16.17;5.00;;;;;;;0.75;100.00;97755.16;5069722;28;20481;-64
2021/12/17 07:56:25;;;;;;;20.80;4.77;;;;;;;0.80;100.00;97742.94;5069464;28;20448;-63
2021/12/17 07:58:58;;;;;;;13.93;4.73;;;;;;;0.78;100.00;97744.69;5068800;28;20131;-69
2021/12/17 08:01:27;;;;;;;9.97;5.00;;;;;;;0.84;100.00;97753.13;5068686;28;20106;-68
2021/12/17 08:03:55;;;;;;;14.70;4.33;;;;;;;0.83;100.00;97737.63;5068645;28;20046;-69
2021/12/17 08:06:30;;;;;;;14.83;6.00;;;;;;;0.92;100.00;97729.56;5069213;28;20037;-69
2021/12/17 08:09:20;;;;;;;19.67;7.27;;;;;;;1.02;100.00;97732.69;5064739;28;20052;-69
2021/12/17 08:11:55;;;;;;;17.33;7.80;;;;;;;1.06;100.00;97734.28;5068664;28;20036;-68
2021/12/17 08:14:23;;;;;;;23.77;7.70;;;;;;;1.02;100.00;97743.06;5069033;28;20041;-68
2021/12/17 08:16:58;;;;;;;22.73;9.07;;;;;;;0.96;100.00;97712.16;5069912;28;20119;-64
2021/12/17 08:25:09;;;;;;;24.13;8.93;;;;;;;1.07;100.00;97746.34;5068746;28;20474;-63
2021/12/17 08:27:50;;;;;;;14.27;5.90;;;;;;;1.07;100.00;97730.78;5069077;28;20066;-64
2021/12/17 08:30:25;;;;;;;17.03;6.07;;;;;;;1.06;100.00;97729.09;5052273;28;20052;-65
2021/12/17 08:32:59;;;;;;;21.40;6.83;;;;;;;1.03;100.00;97750.78;5068415;28;20040;-65
2021/12/17 08:35:26;;;;;;;22.40;6.57;;;;;;;1.01;100.00;97733.59;5068713;28;20104;-64
2021/12/17 08:37:59;;;;;;;15.93;6.30;;;;;;;1.10;100.00;97730.69;5069901;28;20124;-64
2021/12/17 08:40:29;;;;;;;17.47;6.93;;;;;;;1.18;100.00;97731.28;5069049;28;20072;-66
2021/12/17 08:42:58;;;;;;;12.03;4.97;;;;;;;1.20;100.00;97732.09;5067079;28;20111;-65
2021/12/17 08:45:27;;;;;;;13.00;5.30;;;;;;;1.24;100.00;97718.09;5068906;28;20052;-65
2021/12/17 08:48:24;;;;;;;14.97;5.20;;;;;;;1.16;100.00;97740.84;5069100;28;20036;-65
2021/12/17 08:51:08;;;;;;;7.05;3.83;;;;;;;1.02;100.00;97740.47;5069457;28;20037;-64
2021/12/17 08:53:38;;;;;;;18.37;4.77;;;;;;;0.86;100.00;97741.88;5068753;28;20078;-64
2021/12/17 08:56:07;;;;;;;33.53;6.83;;;;;;;0.88;100.00;97734.88;5069295;28;20036;-65
2021/12/17 08:58:35;;;;;;;17.93;6.10;;;;;;;1.02;100.00;97727.50;5069306;28;20048;-65
2021/12/17 09:01:04;;;;;;;24.90;6.20;;;;;;;1.20;100.00;97727.72;5068993;28;20111;-66
2021/12/17 09:03:34;;;;;;;18.00;7.07;;;;;;;1.28;100.00;97717.09;5068706;28;20056;-65
2021/12/17 09:06:10;;;;;;;20.27;6.50;;;;;;;1.19;100.00;97726.03;5069458;28;20094;-65
2021/12/17 09:08:42;;;;;;;22.15;6.75;;;;;;;1.33;100.00;97713.44;5069545;28;20036;-65
2021/12/17 09:11:11;;;;;;;16.83;6.27;;;;;;;1.61;100.00;97721.97;5068632;28;20098;-65
2021/12/17 09:13:56;;;;;;;14.10;5.80;;;;;;;1.40;100.00;97719.25;5068644;28;20048;-65
2021/12/17 09:16:28;;;;;;;16.63;6.25;;;;;;;1.25;100.00;97712.00;5068234;28;20080;-65
2021/12/17 09:18:58;;;;;;;16.93;6.53;;;;;;;1.26;100.00;97698.13;5068077;28;20041;-64
2021/12/17 09:21:46;;;;;;;19.07;6.70;;;;;;;1.51;100.00;97710.22;5069423;28;20071;-65
2021/12/17 09:24:21;;;;;;;29.13;8.17;;;;;;;1.65;100.00;97707.97;5068758;28;20969;-65
2021/12/17 09:27:06;;;;;;;22.90;5.80;;;;;;;1.46;100.00;97699.16;5069136;28;20059;-65
2021/12/17 09:29:53;;;;;;;22.57;6.10;;;;;;;1.39;100.00;97710.66;5068701;28;20043;-62
2021/12/17 09:32:21;;;;;;;18.43;6.20;;;;;;;1.36;100.00;97702.13;5069448;28;20055;-64
2021/12/17 09:34:49;;;;;;;18.03;7.83;;;;;;;1.22;100.00;97710.38;5070676;28;20048;-64
2021/12/17 09:37:17;;;;;;;19.80;7.40;;;;;;;1.26;100.00;97700.72;5073404;28;20048;-65
2021/12/17 09:39:44;;;;;;;18.63;6.80;;;;;;;1.27;100.00;97712.81;5073363;28;20492;-65
2021/12/17 09:42:12;;;;;;;19.00;6.97;;;;;;;1.39;100.00;97705.47;5073338;28;20123;-66
2021/12/17 09:44:39;;;;;;;14.97;6.83;;;;;;;1.31;100.00;97704.03;5070036;28;20041;-70
2021/12/17 09:47:07;;;;;;;19.73;8.20;;;;;;;1.23;100.00;97706.06;5072049;28;20051;-69
2021/12/17 09:49:34;;;;;;;18.60;7.03;;;;;;;1.18;100.00;97711.38;5067528;28;20135;-70
2021/12/17 09:52:03;;;;;;;24.43;6.17;;;;;;;1.25;100.00;97697.31;5071388;28;20044;-70
2021/12/17 09:54:30;;;;;;;17.60;5.80;;;;;;;1.27;100.00;97692.91;5071389;28;20777;-70
2021/12/17 09:56:57;;;;;;;22.53;5.70;;;;;;;1.29;100.00;97693.72;5070351;28;20068;-71
2021/12/17 09:59:24;;;;;;;12.20;5.97;;;;;;;1.17;100.00;97691.56;5070148;28;20048;-70
2021/12/17 10:01:51;;;;;;;14.37;6.67;;;;;;;1.14;100.00;97695.97;5071233;28;20075;-70
2021/12/17 10:04:20;;;;;;;16.37;6.23;;;;;;;1.24;100.00;97698.22;5071266;28;20049;-70
2021/12/17 10:06:49;;;;;;;12.23;5.67;;;;;;;1.32;100.00;97701.38;5070943;28;20040;-70
2021/12/17 10:09:18;;;;;;;20.50;6.80;;;;;;;1.37;100.00;97698.63;5070756;28;20049;-71
2021/12/17 10:12:03;;;;;;;12.90;6.37;;;;;;;1.18;100.00;97692.38;5070769;28;20131;-69
2021/12/17 10:14:30;;;;;;;25.93;8.17;;;;;;;1.16;100.00;97679.47;5070845;28;20070;-70
2021/12/17 10:17:08;;;;;;;20.67;6.13;;;;;;;1.17;100.00;97673.41;5069249;28;20494;-69
2021/12/17 10:19:42;;;;;;;20.80;6.90;;;;;;;1.14;100.00;97678.69;5069010;28;20045;-71
2021/12/17 10:22:10;;;;;;;18.97;6.53;;;;;;;1.15;100.00;97682.09;5070986;28;20397;-70
2021/12/17 10:24:43;;;;;;;16.50;6.53;;;;;;;1.26;100.00;97674.81;5070803;28;20044;-71
2021/12/17 10:27:21;;;;;;;19.42;6.55;;;;;;;1.37;100.00;97672.69;5070768;28;20041;-74
2021/12/17 10:29:49;;;;;;;11.33;5.07;;;;;;;1.30;100.00;97666.88;5069590;28;20197;-71
2021/12/17 10:32:20;;;;;;;16.30;5.83;;;;;;;1.23;100.00;97680.13;5070673;28;20052;-72
2021/12/17 10:35:00;;;;;;;16.80;5.87;;;;;;;1.16;100.00;97665.66;5069380;28;20053;-71
2021/12/17 10:37:35;;;;;;;19.43;5.30;;;;;;;1.02;100.00;97670.47;5069846;28;20404;-71
2021/12/17 10:40:16;;;;;;;18.93;6.93;;;;;;;1.08;100.00;97670.28;5066654;28;20087;-73
2021/12/17 10:42:50;;;;;;;20.60;6.73;;;;;;;1.09;100.00;97671.97;5067778;28;20140;-72
2021/12/17 10:45:25;;;;;;;20.83;6.63;;;;;;;1.11;100.00;97659.78;5068222;28;20048;-72
2021/12/17 10:48:02;;;;;;;16.90;5.87;;;;;;;1.16;100.00;97663.09;5069428;28;20109;-73
2021/12/17 10:50:30;;;;;;;16.57;6.77;;;;;;;1.11;100.00;97649.41;5068632;28;20040;-71
2021/12/17 10:52:57;;;;;;;15.70;5.90;;;;;;;1.06;100.00;97659.09;5070122;28;20202;-71
2021/12/17 10:55:26;;;;;;;13.93;7.30;;;;;;;1.00;100.00;97657.56;5070059;28;20033;-72
2021/12/17 10:58:02;;;;;;;17.40;5.80;;;;;;;0.98;100.00;97661.13;5069275;28;20045;-69
2021/12/17 11:00:29;;;;;;;18.83;6.87;;;;;;;1.01;100.00;97668.78;5068592;28;20504;-69
2021/12/17 11:02:56;;;;;;;22.47;7.23;;;;;;;1.09;100.00;97659.00;5067158;28;20141;-69
2021/12/17 11:05:24;;;;;;;18.57;6.97;;;;;;;1.05;100.00;97660.00;5066032;28;20071;-71
2021/12/17 11:07:52;;;;;;;15.77;6.90;;;;;;;1.01;100.00;97661.84;5067206;28;20040;-70
2021/12/17 11:10:31;;;;;;;18.73;6.37;;;;;;;1.08;100.00;97652.97;5066679;28;20111;-69
2021/12/17 11:12:58;;;;;;;10.30;5.77;;;;;;;1.02;100.00;97640.22;5066186;28;20048;-69
2021/12/17 11:15:27;;;;;;;13.73;4.97;;;;;;;0.90;100.00;97655.34;5068983;28;20048;-69
2021/12/17 11:17:56;;;;;;;21.03;6.00;;;;;;;0.83;100.00;97658.13;5067741;28;20049;-69
2021/12/17 11:20:25;;;;;;;9.63;4.97;;;;;;;0.91;100.00;97644.09;5069226;28;20063;-70
2021/12/17 11:22:55;;;;;;;16.10;5.33;;;;;;;0.90;100.00;97643.22;5069328;28;20044;-69
2021/12/17 11:25:23;;;;;;;18.13;6.03;;;;;;;0.95;100.00;97656.03;5071026;28;20040;-69
2021/12/17 11:27:53;;;;;;;16.67;6.77;;;;;;;0.97;100.00;97649.06;5069958;28;20347;-71
2021/12/17 11:30:23;;;;;;;26.30;7.17;;;;;;;1.03;100.00;97656.63;5059686;28;20131;-70
2021/12/17 11:32:50;;;;;;;16.90;6.73;;;;;;;1.02;100.00;97657.53;5065316;28;20044;-70
2021/12/17 11:35:20;;;;;;;22.13;7.13;;;;;;;1.05;100.00;97640.09;5062184;28;20505;-69
2021/12/17 11:37:49;;;;;;;21.63;7.53;;;;;;;1.12;100.00;97645.94;5063111;28;20432;-69
2021/12/17 11:40:21;;;;;;;20.60;7.10;;;;;;;1.15;100.00;97649.25;5060469;28;20972;-71
2021/12/17 11:43:15;;;;;;;23.17;8.57;;;;;;;1.03;100.00;97651.44;5055985;28;20370;-73
2021/12/17 11:45:42;;;;;;;;;;;;;;;0.92;100.00;97650.94;5066439;28;20127;-71
2021/12/17 11:48:18;;;;;;;18.30;7.93;;;;;;;0.82;100.00;97647.81;5062442;28;19924;-70
2021/12/17 11:50:47;;;;;;;20.80;8.43;;;;;;;0.78;100.00;97649.69;5059362;28;20050;-70
2021/12/17 11:53:22;;;;;;;28.53;8.83;;;;;;;0.75;100.00;97651.53;5058743;28;20043;-71
2021/12/17 11:55:56;;;;;;;24.90;9.00;;;;;;;0.68;100.00;97647.44;5059361;28;20044;-70
2021/12/17 11:58:49;;;;;;;21.03;9.10;;;;;;;0.65;100.00;97650.97;5065635;28;20076;-64
2021/12/17 12:01:47;;;;;;;27.50;10.93;;;;;;;0.70;100.00;97653.44;5064131;28;20525;-65
2021/12/17 12:04:39;;;;;;;24.80;10.33;;;;;;;0.78;100.00;97643.66;5063641;28;20457;-64
2021/12/17 12:07:11;;;;;;;17.87;8.57;;;;;;;0.67;100.00;97656.13;5064170;28;20116;-64
2021/12/17 12:09:56;;;;;;;23.60;9.13;;;;;;;0.67;100.00;97658.69;5082819;28;20040;-63
2021/12/17 12:12:25;;;;;;;21.33;8.60;;;;;;;0.66;100.00;97641.47;5064220;28;20044;-68
2021/12/17 12:14:54;;;;;;;22.70;8.27;;;;;;;0.56;100.00;97647.84;5066675;28;20094;-67
2021/12/17 12:18:01;;;;;;;18.73;7.90;;;;;;;0.50;100.00;97638.53;5067060;28;20048;-67
2021/12/17 12:20:50;;;;;;;18.73;9.00;;;;;;;0.49;100.00;97649.81;5063450;28;20052;-68
2021/12/17 12:23:20;;;;;;;25.80;8.83;;;;;;;0.52;100.00;97644.53;5063369;28;20114;-66
2021/12/17 12:26:08;;;;;;;21.97;10.07;;;;;;;0.53;100.00;97648.81;5063838;28;20047;-66
2021/12/17 12:28:48;;;;;;;26.03;9.13;;;;;;;0.55;100.00;97644.41;5066067;28;20044;-67
2021/12/17 12:31:51;;;;;;;19.70;8.50;;;;;;;0.44;100.00;97648.25;5065891;28;20045;-69
2021/12/17 12:34:19;;;;;;;23.90;8.33;;;;;;;0.31;100.00;97655.56;5060000;28;20473;-72
2021/12/17 12:36:52;;;;;;;22.80;9.20;;;;;;;0.24;100.00;97648.03;5065121;28;20135;-69
2021/12/17 12:39:27;;;;;;;27.48;9.10;;;;;;;0.22;100.00;97645.47;5064052;28;20135;-69
2021/12/17 12:42:04;;;;;;;25.00;9.83;;;;;;;0.25;100.00;97639.38;5067562;28;20036;-68
2021/12/17 12:45:13;;;;;;;24.10;10.30;;;;;;;0.23;100.00;97635.97;5067189;28;20041;-67
2021/12/17 12:47:50;;;;;;;31.50;12.03;;;;;;;0.29;100.00;97631.44;5058249;28;20062;-66
2021/12/17 12:50:19;;;;;;;34.83;11.47;;;;;;;0.26;100.00;97634.16;5067160;28;20396;-67
2021/12/17 12:52:51;;;;;;;21.43;9.90;;;;;;;0.31;100.00;97640.03;5067920;28;20086;-66
2021/12/17 12:55:25;;;;;;;31.37;11.97;;;;;;;0.30;100.00;97634.91;5067445;28;20044;-63
2021/12/17 12:57:55;;;;;;;21.70;9.00;;;;;;;0.26;100.00;97634.16;5066999;28;20064;-66
2021/12/17 13:00:25;;;;;;;29.00;10.43;;;;;;;0.24;100.00;97619.53;5068582;28;20099;-68
2021/12/17 13:02:56;;;;;;;20.17;8.83;;;;;;;0.22;100.00;97644.66;5067896;28;20044;-66
2021/12/17 13:05:24;;;;;;;29.70;8.17;;;;;;;0.24;100.00;97630.75;5069230;28;20558;-65
2021/12/17 13:07:54;;;;;;;20.30;7.90;;;;;;;0.22;100.00;97629.94;5068543;28;20536;-66
2021/12/17 13:10:23;;;;;;;20.50;7.60;;;;;;;0.22;100.00;97642.06;5073148;28;20049;-65
2021/12/17 13:12:55;;;;;;;15.73;6.17;;;;;;;0.26;100.00;97641.94;5072826;28;20044;-66
2021/12/17 13:15:41;;;;;;;17.03;5.60;;;;;;;0.26;100.00;97628.97;5072097;28;20072;-65
2021/12/17 13:21:17;;;;;;;20.77;7.30;;;;;;;0.23;100.00;97642.03;5056399;28;20068;-65
2021/12/17 13:23:49;;;;;;;20.00;7.13;;;;;;;0.22;100.00;97634.31;5074118;28;20473;-63
2021/12/17 13:26:18;;;;;;;20.80;6.38;;;;;;;0.22;100.00;97639.47;5074615;28;20124;-63
2021/12/17 13:29:01;;;;;;;19.30;7.63;;;;;;;0.11;100.00;97639.81;5073000;28;20131;-63
2021/12/17 13:31:56;;;;;;;18.95;7.45;;;;;;;0.05;100.00;97637.41;5072686;28;20075;-65
2021/12/17 13:34:29;;;;;;;18.47;7.23;;;;;;;0.10;100.00;97640.69;5071461;28;20057;-64
2021/12/17 13:37:06;;;;;;;25.23;8.67;;;;;;;0.07;100.00;97645.13;5070807;28;20080;-64
2021/12/17 13:39:37;;;;;;;19.70;8.00;;;;;;;0.10;100.00;97653.63;5072326;28;20143;-64
2021/12/17 13:42:06;;;;;;;22.30;7.80;;;;;;;0.11;100.00;97645.00;5073417;28;20063;-65
2021/12/17 13:44:36;;;;;;;35.93;12.83;;;;;;;0.12;100.00;97638.06;5073062;28;20032;-64
2021/12/17 13:47:25;;;;;;;30.60;10.07;;;;;;;0.15;100.00;97644.00;5068639;28;20469;-64
2021/12/17 13:50:11;;;;;;;23.77;9.60;;;;;;;0.14;100.00;97636.28;5067159;28;20052;-64
2021/12/17 13:52:44;;;;;;;20.80;9.50;;;;;;;0.17;100.00;97647.38;5071569;28;20051;-66
2021/12/17 13:55:14;;;;;;;26.50;9.82;;;;;;;0.20;100.00;97636.94;5071281;28;20492;-65
2021/12/17 13:57:42;;;;;;;21.47;8.17;;;;;;;0.17;100.00;97647.38;5069294;28;20039;-66
2021/12/17 14:00:13;;;;;;;29.70;7.90;;;;;;;0.16;100.00;97644.84;5071312;28;20813;-64
2021/12/17 14:02:44;;;;;;;21.80;6.50;;;;;;;0.13;100.00;97639.75;5071072;28;20385;-64
2021/12/17 14:05:16;;;;;;;12.30;6.37;;;;;;;0.10;100.00;97640.69;5071493;28;20485;-64
2021/12/17 14:07:49;;;;;;;17.65;5.90;;;;;;;0.08;100.00;97645.09;5071748;28;20056;-65